createdAt,value
2019-03-09T00:00:53.398Z,4.10
2019-03-09T00:03:19.443Z,6.70
2019-03-09T00:05:45.900Z,4.60
2019-03-09T00:08:11.943Z,4.60
2019-03-09T00:10:38.612Z,6.27
2019-03-09T00:13:04.997Z,3.70
2019-03-09T00:15:31.043Z,4.07
2019-03-09T00:17:57.541Z,3.67
2019-03-09T00:20:23.587Z,3.37
2019-03-09T00:23:03.258Z,3.60
2019-03-09T00:25:31.540Z,4.77
2019-03-09T00:27:59.921Z,3.63
2019-03-09T00:30:27.925Z,2.60
2019-03-09T00:32:54.061Z,5.10
2019-03-09T00:35:20.174Z,2.50
2019-03-09T00:37:46.592Z,8.03
2019-03-09T00:40:13.131Z,2.70
2019-03-09T00:42:41.860Z,2.53
2019-03-09T00:45:08.992Z,3.50
2019-03-09T00:47:35.036Z,2.60
2019-03-09T00:50:01.211Z,3.47
2019-03-09T00:52:27.619Z,3.27
2019-03-09T00:54:53.691Z,4.37
2019-03-09T00:57:20.493Z,5.03
2019-03-09T00:59:46.567Z,4.30
2019-03-09T01:02:13.252Z,3.53
2019-03-09T01:04:39.331Z,3.23
2019-03-09T01:07:05.381Z,2.30
2019-03-09T01:09:31.723Z,3.00
2019-03-09T01:11:57.803Z,2.47
2019-03-09T01:14:24.180Z,2.70
2019-03-09T01:16:50.600Z,2.70
2019-03-09T01:19:16.682Z,2.43
2019-03-09T01:21:43.102Z,2.73
2019-03-09T01:24:09.604Z,2.53
2019-03-09T01:26:35.651Z,1.77
2019-03-09T01:29:02.909Z,2.43
2019-03-09T01:31:29.721Z,3.90
2019-03-09T01:33:55.770Z,2.03
2019-03-09T01:36:22.209Z,2.17
2019-03-09T01:38:48.911Z,2.93
2019-03-09T01:41:15.249Z,2.30
2019-03-09T01:43:41.393Z,1.60
2019-03-09T01:46:07.438Z,1.70
2019-03-09T01:48:33.525Z,2.00
2019-03-09T01:50:59.564Z,2.40
2019-03-09T01:53:25.989Z,1.73
2019-03-09T01:55:52.503Z,2.40
2019-03-09T01:58:18.835Z,1.70
2019-03-09T02:00:45.164Z,2.90
2019-03-09T02:03:11.249Z,3.40
2019-03-09T02:05:37.295Z,2.70
2019-03-09T02:08:04.987Z,1.80
2019-03-09T02:10:31.305Z,2.20
2019-03-09T02:12:57.356Z,1.70
2019-03-09T02:15:23.756Z,2.07
2019-03-09T02:17:49.804Z,1.77
2019-03-09T02:20:17.354Z,2.23
2019-03-09T02:22:44.471Z,1.50
2019-03-09T02:25:12.775Z,2.03
2019-03-09T02:27:39.358Z,2.30
2019-03-09T02:30:07.979Z,2.17
2019-03-09T02:32:34.420Z,2.20
2019-03-09T02:35:00.746Z,1.97
2019-03-09T02:37:26.821Z,1.83
2019-03-09T02:39:58.122Z,1.70
2019-03-09T02:42:24.192Z,2.80
2019-03-09T02:44:50.669Z,1.47
2019-03-09T02:47:17.109Z,1.60
2019-03-09T02:49:43.524Z,2.00
2019-03-09T02:52:09.620Z,1.47
2019-03-09T02:54:35.773Z,1.90
2019-03-09T02:57:01.847Z,1.80
2019-03-09T02:59:28.605Z,1.60
2019-03-09T03:01:56.709Z,1.87
2019-03-09T03:04:23.168Z,1.40
2019-03-09T03:06:49.271Z,1.50
2019-03-09T03:09:16.140Z,1.90
2019-03-09T03:11:42.554Z,1.60
2019-03-09T03:14:08.617Z,1.40
2019-03-09T03:16:35.041Z,1.13
2019-03-09T03:19:01.086Z,1.40
2019-03-09T03:21:27.555Z,2.00
2019-03-09T03:23:53.600Z,1.43
2019-03-09T03:26:19.661Z,1.20
2019-03-09T03:28:45.768Z,1.30
2019-03-09T03:31:11.871Z,1.60
2019-03-09T03:33:38.723Z,1.40
2019-03-09T03:36:04.781Z,1.47
2019-03-09T03:38:31.177Z,2.10
2019-03-09T03:40:57.306Z,1.53
2019-03-09T03:43:23.357Z,1.40
2019-03-09T03:45:49.796Z,1.17
2019-03-09T03:48:15.887Z,1.13
2019-03-09T03:50:42.380Z,1.40
2019-03-09T03:53:09.137Z,1.50
2019-03-09T03:55:35.669Z,2.10
2019-03-09T03:58:02.031Z,1.43
2019-03-09T04:00:28.575Z,1.20
2019-03-09T04:02:56.035Z,1.37
2019-03-09T04:05:22.444Z,1.33
2019-03-09T04:07:48.584Z,1.03
2019-03-09T04:10:15.027Z,1.27
2019-03-09T04:12:41.541Z,1.30
2019-03-09T04:15:07.925Z,1.10
2019-03-09T04:17:34.121Z,1.20
2019-03-09T04:20:00.507Z,1.20
2019-03-09T04:22:27.315Z,1.27
2019-03-09T04:24:54.660Z,1.20
2019-03-09T04:27:21.080Z,1.30
2019-03-09T04:29:47.181Z,1.20
2019-03-09T04:32:13.624Z,1.10
2019-03-09T04:34:39.673Z,1.17
2019-03-09T04:37:06.040Z,1.50
2019-03-09T04:39:32.457Z,1.20
2019-03-09T04:41:58.937Z,1.07
2019-03-09T04:44:27.088Z,1.00
2019-03-09T04:46:53.343Z,1.77
2019-03-09T04:49:19.755Z,1.17
2019-03-09T04:51:45.827Z,1.30
2019-03-09T04:54:12.283Z,1.03
2019-03-09T04:56:38.623Z,1.20
2019-03-09T04:59:04.701Z,1.47
2019-03-09T05:01:31.140Z,0.80
2019-03-09T05:04:38.840Z,0.90
2019-03-09T05:07:05.436Z,0.93
2019-03-09T05:09:54.792Z,1.13
2019-03-09T05:12:21.121Z,0.97
2019-03-09T05:14:47.268Z,1.23
2019-03-09T05:17:13.391Z,0.80
2019-03-09T05:19:39.697Z,0.77
2019-03-09T05:22:05.784Z,1.03
2019-03-09T05:24:31.869Z,0.90
2019-03-09T05:26:57.917Z,0.70
2019-03-09T05:29:24.951Z,1.37
2019-03-09T05:31:51.076Z,0.63
2019-03-09T05:34:17.155Z,0.87
2019-03-09T05:36:43.903Z,1.00
2019-03-09T05:39:10.311Z,2.30
2019-03-09T05:41:36.759Z,0.70
2019-03-09T05:44:03.008Z,0.77
2019-03-09T05:46:29.073Z,0.70
2019-03-09T05:48:55.143Z,1.00
2019-03-09T05:51:21.192Z,1.40
2019-03-09T05:53:47.311Z,0.80
2019-03-09T05:56:13.350Z,0.77
2019-03-09T05:58:39.392Z,0.80
2019-03-09T06:01:05.904Z,1.27
2019-03-09T06:03:31.940Z,0.80
2019-03-09T06:05:59.117Z,0.63
2019-03-09T06:08:25.578Z,0.70
2019-03-09T06:10:51.987Z,1.03
2019-03-09T06:13:18.403Z,0.80
2019-03-09T06:15:44.484Z,1.13
2019-03-09T06:18:11.031Z,1.13
2019-03-09T06:20:37.471Z,1.10
2019-03-09T06:23:03.883Z,0.73
2019-03-09T06:25:29.961Z,1.13
2019-03-09T06:27:56.040Z,1.20
2019-03-09T06:30:22.146Z,1.23
2019-03-09T06:33:07.184Z,0.97
2019-03-09T06:35:33.605Z,0.70
2019-03-09T06:38:36.832Z,0.90
2019-03-09T06:41:04.491Z,0.87
2019-03-09T06:43:30.931Z,0.70
2019-03-09T06:45:57.008Z,0.83
2019-03-09T06:48:23.423Z,0.70
2019-03-09T06:50:49.725Z,1.00
2019-03-09T06:53:16.185Z,1.43
2019-03-09T06:55:42.239Z,0.67
2019-03-09T06:58:08.301Z,0.50
2019-03-09T07:00:36.054Z,0.97
2019-03-09T07:03:04.107Z,0.83
2019-03-09T07:05:30.519Z,0.60
2019-03-09T07:07:56.629Z,0.70
2019-03-09T07:10:22.672Z,1.33
2019-03-09T07:12:49.088Z,1.13
2019-03-09T07:15:21.767Z,0.73
2019-03-09T07:17:49.012Z,1.07
2019-03-09T07:20:15.476Z,1.00
2019-03-09T07:22:41.927Z,0.70
2019-03-09T07:25:08.443Z,0.90
2019-03-09T07:27:34.535Z,0.67
2019-03-09T07:30:00.953Z,0.60
2019-03-09T07:32:27.070Z,0.80
2019-03-09T07:34:53.245Z,0.80
2019-03-09T07:37:19.602Z,0.63
2019-03-09T07:39:46.041Z,0.80
2019-03-09T07:42:12.127Z,0.60
2019-03-09T07:44:38.535Z,0.77
2019-03-09T07:47:04.924Z,0.70
2019-03-09T07:49:31.013Z,0.80
2019-03-09T07:51:57.115Z,1.03
2019-03-09T07:54:23.205Z,0.67
2019-03-09T07:56:49.672Z,0.83
2019-03-09T07:59:15.711Z,0.60
2019-03-09T08:01:42.132Z,0.70
2019-03-09T08:04:08.521Z,0.50
2019-03-09T08:06:34.615Z,1.00
2019-03-09T08:09:00.708Z,1.10
2019-03-09T08:11:26.755Z,0.80
2019-03-09T08:13:53.118Z,0.90
2019-03-09T08:16:19.595Z,0.80
2019-03-09T08:18:46.011Z,0.80
2019-03-09T08:21:12.417Z,1.13
2019-03-09T08:23:38.891Z,0.60
2019-03-09T08:26:05.310Z,0.60
2019-03-09T08:28:31.750Z,0.80
2019-03-09T08:30:57.964Z,1.00
2019-03-09T08:33:24.506Z,0.70
2019-03-09T08:35:50.664Z,0.70
2019-03-09T08:38:16.804Z,11.50
2019-03-09T08:40:42.942Z,9.30
2019-03-09T08:43:09.060Z,11.43
2019-03-09T08:45:35.809Z,12.17
2019-03-09T08:48:01.868Z,8.27
2019-03-09T08:50:29.408Z,24.03
2019-03-09T08:52:55.844Z,10.33
2019-03-09T08:55:22.044Z,16.93
2019-03-09T08:57:48.778Z,10.83
2019-03-09T09:00:18.191Z,12.40
2019-03-09T09:02:44.240Z,12.53
2019-03-09T09:05:10.291Z,15.23
2019-03-09T09:07:38.476Z,12.17
2019-03-09T09:10:08.128Z,10.00
2019-03-09T09:12:34.552Z,12.90
2019-03-09T09:15:01.293Z,12.90
2019-03-09T09:17:27.625Z,5.80
2019-03-09T09:19:54.360Z,14.43
2019-03-09T09:22:20.409Z,7.83
2019-03-09T09:24:47.060Z,8.33
2019-03-09T09:27:13.108Z,7.03
2019-03-09T09:29:39.797Z,8.40
2019-03-09T09:32:06.061Z,5.60
2019-03-09T09:34:32.468Z,8.10
2019-03-09T09:36:58.516Z,13.63
2019-03-09T09:39:25.001Z,5.10
2019-03-09T09:41:51.331Z,4.90
2019-03-09T09:44:17.437Z,5.00
2019-03-09T09:46:43.489Z,5.03
2019-03-09T09:49:09.903Z,4.23
2019-03-09T09:51:36.377Z,5.83
2019-03-09T09:54:02.441Z,4.63
2019-03-09T09:56:28.795Z,4.23
2019-03-09T09:58:55.133Z,5.17
2019-03-09T10:01:21.458Z,2.00
2019-03-09T10:03:47.933Z,5.57
2019-03-09T10:06:13.989Z,4.10
2019-03-09T10:08:40.408Z,6.47
2019-03-09T10:11:06.776Z,4.10
2019-03-09T10:13:32.883Z,4.90
2019-03-09T10:15:59.296Z,4.07
2019-03-09T10:18:25.347Z,3.40
2019-03-09T10:20:51.440Z,4.23
2019-03-09T10:23:17.856Z,5.40
2019-03-09T10:25:43.964Z,9.70
2019-03-09T10:28:10.007Z,1.73
2019-03-09T10:30:36.415Z,6.30
2019-03-09T10:33:03.028Z,3.37
2019-03-09T10:35:29.439Z,3.00
2019-03-09T10:37:55.788Z,3.07
2019-03-09T10:40:21.910Z,1.87
2019-03-09T10:42:48.418Z,7.03
2019-03-09T10:45:16.105Z,5.80
2019-03-09T10:47:42.158Z,2.63
2019-03-09T10:50:12.981Z,2.10
2019-03-09T10:52:39.708Z,6.17
2019-03-09T10:55:18.429Z,3.27
2019-03-09T10:57:44.536Z,1.50
2019-03-09T11:00:13.131Z,2.03
2019-03-09T11:02:39.873Z,3.60
2019-03-09T11:05:09.089Z,1.87
2019-03-09T11:07:35.139Z,5.07
2019-03-09T11:10:01.541Z,2.40
2019-03-09T11:12:28.055Z,2.13
2019-03-09T11:14:54.092Z,2.60
2019-03-09T11:17:20.141Z,1.20
2019-03-09T11:19:46.253Z,3.33
2019-03-09T11:22:12.562Z,0.97
2019-03-09T11:24:38.672Z,2.80
2019-03-09T11:27:05.143Z,1.27
2019-03-09T11:29:31.189Z,1.83
2019-03-09T11:31:57.231Z,1.40
2019-03-09T11:34:23.395Z,1.53
2019-03-09T11:36:49.444Z,1.33
2019-03-09T11:39:15.628Z,0.83
2019-03-09T11:41:41.680Z,1.13
2019-03-09T11:44:08.105Z,2.80
2019-03-09T11:46:34.529Z,2.63
2019-03-09T11:49:00.856Z,6.43
2019-03-09T11:51:26.931Z,0.70
2019-03-09T11:53:53.050Z,0.50
2019-03-09T11:56:19.100Z,0.90
2019-03-09T11:58:45.147Z,0.90
2019-03-09T12:01:11.359Z,1.53
2019-03-09T12:03:37.476Z,1.00
2019-03-09T12:06:03.896Z,2.60
2019-03-09T12:08:30.263Z,0.90
2019-03-09T12:10:56.376Z,3.30
2019-03-09T12:13:23.148Z,1.47
2019-03-09T12:15:49.197Z,1.90
2019-03-09T12:18:15.996Z,2.93
2019-03-09T12:20:42.428Z,1.93
2019-03-09T12:23:13.497Z,2.53
2019-03-09T12:25:39.553Z,1.23
2019-03-09T12:28:06.026Z,1.73
2019-03-09T12:30:32.071Z,2.13
2019-03-09T12:32:58.381Z,3.13
2019-03-09T12:35:24.548Z,1.90
2019-03-09T12:37:50.600Z,0.97
2019-03-09T12:40:18.494Z,1.50
2019-03-09T12:42:45.540Z,2.03
2019-03-09T12:45:13.407Z,4.13
2019-03-09T12:47:39.879Z,3.50
2019-03-09T12:50:14.462Z,1.03
2019-03-09T12:52:40.891Z,5.00
2019-03-09T12:55:06.945Z,4.40
2019-03-09T12:57:33.056Z,6.57
2019-03-09T12:59:59.378Z,3.47
2019-03-09T13:02:25.419Z,1.13
2019-03-09T13:04:51.891Z,0.93
2019-03-09T13:07:17.936Z,2.40
2019-03-09T13:09:44.096Z,2.10
2019-03-09T13:12:10.140Z,2.30
2019-03-09T13:14:36.532Z,3.07
2019-03-09T13:17:02.864Z,0.80
2019-03-09T13:19:36.474Z,1.23
2019-03-09T13:22:02.893Z,1.90
2019-03-09T13:24:28.996Z,1.17
2019-03-09T13:26:55.049Z,1.63
2019-03-09T13:29:21.780Z,1.30
2019-03-09T13:31:48.203Z,0.80
2019-03-09T13:34:14.346Z,3.90
2019-03-09T13:36:41.392Z,2.40
2019-03-09T13:39:08.237Z,1.73
2019-03-09T13:41:34.353Z,2.43
2019-03-09T13:44:00.396Z,4.60
2019-03-09T13:46:26.523Z,1.00
2019-03-09T13:48:52.564Z,2.27
2019-03-09T13:51:18.608Z,2.47
2019-03-09T13:53:45.108Z,6.97
2019-03-09T13:56:11.517Z,5.43
2019-03-09T13:58:37.560Z,4.60
2019-03-09T14:01:04.070Z,6.43
2019-03-09T14:03:30.917Z,6.63
2019-03-09T14:05:57.021Z,6.00
2019-03-09T14:08:23.120Z,25.13
2019-03-09T14:10:49.488Z,12.67
2019-03-09T14:13:15.592Z,13.57
2019-03-09T14:15:42.003Z,12.67
2019-03-09T14:18:08.502Z,15.07
2019-03-09T14:20:34.917Z,10.47
2019-03-09T14:23:01.223Z,12.57
2019-03-09T14:25:27.984Z,12.07
2019-03-09T14:27:54.312Z,10.27
2019-03-09T14:30:20.352Z,10.10
2019-03-09T14:32:46.828Z,9.20
2019-03-09T14:35:13.110Z,9.83
2019-03-09T14:37:39.837Z,7.13
2019-03-09T14:40:14.261Z,7.40
2019-03-09T14:42:40.787Z,9.60
2019-03-09T14:45:15.520Z,7.47
2019-03-09T14:47:41.927Z,9.00
2019-03-09T14:50:09.240Z,8.10
2019-03-09T14:52:35.293Z,8.17
2019-03-09T14:55:03.396Z,9.67
2019-03-09T14:57:29.506Z,8.00
2019-03-09T14:59:55.919Z,9.03
2019-03-09T15:02:21.967Z,7.20
2019-03-09T15:04:48.077Z,11.90
2019-03-09T15:07:14.491Z,9.33
2019-03-09T15:09:40.611Z,16.03
2019-03-09T15:12:07.033Z,10.53
2019-03-09T15:14:33.085Z,12.00
2019-03-09T15:16:59.196Z,13.83
2019-03-09T15:19:25.873Z,11.03
2019-03-09T15:21:51.948Z,8.77
2019-03-09T15:24:18.328Z,10.60
2019-03-09T15:26:44.745Z,12.47
2019-03-09T15:29:10.793Z,11.63
2019-03-09T15:31:37.211Z,8.13
2019-03-09T15:34:03.270Z,9.50
2019-03-09T15:36:29.771Z,10.50
2019-03-09T15:38:56.512Z,13.97
2019-03-09T15:41:22.939Z,10.67
2019-03-09T15:43:48.996Z,8.73
2019-03-09T15:46:15.099Z,7.90
2019-03-09T15:48:41.140Z,9.00
2019-03-09T15:51:07.184Z,9.00
2019-03-09T15:53:34.487Z,7.23
2019-03-09T15:56:00.701Z,7.77
2019-03-09T15:58:27.117Z,7.63
2019-03-09T16:00:53.163Z,7.17
2019-03-09T16:03:19.635Z,4.50
2019-03-09T16:05:46.059Z,9.50
2019-03-09T16:08:12.471Z,8.27
2019-03-09T16:10:38.949Z,5.30
2019-03-09T16:13:05.332Z,6.13
2019-03-09T16:15:31.720Z,6.47
2019-03-09T16:17:58.098Z,6.60
2019-03-09T16:20:26.089Z,8.23
2019-03-09T16:22:52.808Z,11.50
2019-03-09T16:25:18.852Z,7.10
2019-03-09T16:27:46.418Z,4.20
2019-03-09T16:30:15.379Z,6.10
2019-03-09T16:32:41.791Z,4.23
2019-03-09T16:35:09.901Z,3.93
2019-03-09T16:37:36.013Z,4.70
2019-03-09T16:40:04.720Z,4.60
2019-03-09T16:42:31.429Z,5.17
2019-03-09T16:44:57.475Z,7.00
2019-03-09T16:47:23.849Z,14.33
2019-03-09T16:49:49.934Z,10.87
2019-03-09T16:52:15.975Z,7.80
2019-03-09T16:54:42.240Z,9.40
2019-03-09T16:57:08.289Z,8.40
2019-03-09T16:59:34.404Z,7.70
2019-03-09T17:02:01.163Z,8.40
2019-03-09T17:04:27.203Z,11.13
2019-03-09T17:06:53.324Z,7.10
2019-03-09T17:09:19.372Z,7.70
2019-03-09T17:11:45.787Z,8.93
2019-03-09T17:14:12.160Z,5.33
2019-03-09T17:16:38.209Z,5.73
2019-03-09T17:19:04.971Z,5.47
2019-03-09T17:21:31.081Z,4.73
2019-03-09T17:23:57.812Z,6.60
2019-03-09T17:26:24.494Z,4.57
2019-03-09T17:28:50.771Z,5.33
2019-03-09T17:31:17.109Z,7.70
2019-03-09T17:33:43.536Z,5.23
2019-03-09T17:36:09.864Z,5.10
2019-03-09T17:38:36.339Z,5.93
2019-03-09T17:41:02.733Z,4.70
2019-03-09T17:43:29.076Z,3.50
2019-03-09T17:45:55.187Z,3.93
2019-03-09T17:48:21.301Z,3.83
2019-03-09T17:50:48.049Z,4.13
2019-03-09T17:53:14.470Z,4.00
2019-03-09T17:55:40.923Z,4.67
2019-03-09T17:58:06.969Z,5.07
2019-03-09T18:00:42.554Z,3.73
2019-03-09T18:03:06.057Z,3.80
2019-03-09T18:05:32.106Z,3.57
2019-03-09T18:07:58.575Z,3.80
2019-03-09T18:10:29.661Z,3.33
2019-03-09T18:12:56.075Z,3.40
2019-03-09T18:15:22.124Z,4.77
2019-03-09T18:17:48.232Z,2.80
2019-03-09T18:20:14.552Z,3.60
2019-03-09T18:22:41.035Z,3.20
2019-03-09T18:25:08.784Z,3.43
2019-03-09T18:27:35.487Z,2.80
2019-03-09T18:30:02.769Z,3.60
2019-03-09T18:32:29.073Z,3.40
2019-03-09T18:34:55.339Z,2.67
2019-03-09T18:37:21.752Z,2.77
2019-03-09T18:39:47.859Z,2.43
2019-03-09T18:42:14.387Z,3.30
2019-03-09T18:44:40.806Z,2.97
2019-03-09T18:47:07.113Z,2.40
2019-03-09T18:49:33.155Z,3.00
2019-03-09T18:51:59.607Z,2.40
2019-03-09T18:54:26.019Z,2.07
2019-03-09T18:56:52.363Z,2.37
2019-03-09T18:59:18.483Z,2.00
2019-03-09T19:01:44.592Z,3.47
2019-03-09T19:04:11.007Z,2.50
2019-03-09T19:06:38.607Z,2.30
2019-03-09T19:09:05.921Z,2.80
2019-03-09T19:11:32.268Z,2.50
2019-03-09T19:13:58.619Z,2.60
2019-03-09T19:16:25.359Z,3.20
2019-03-09T19:18:51.412Z,2.20
2019-03-09T19:21:17.719Z,3.10
2019-03-09T19:23:45.419Z,2.20
2019-03-09T19:26:11.803Z,2.37
2019-03-09T19:28:37.920Z,2.63
2019-03-09T19:31:04.333Z,2.03
2019-03-09T19:33:30.743Z,3.17
2019-03-09T19:35:58.534Z,3.27
2019-03-09T19:38:25.510Z,3.20
2019-03-09T19:40:51.678Z,3.00
2019-03-09T19:43:18.139Z,3.33
2019-03-09T19:45:45.505Z,2.90
2019-03-09T19:48:11.849Z,3.00
2019-03-09T19:50:38.319Z,3.10
2019-03-09T19:53:04.731Z,2.80
2019-03-09T19:55:30.855Z,2.93
2019-03-09T19:57:57.267Z,3.40
2019-03-09T20:00:23.317Z,3.53
2019-03-09T20:02:49.424Z,3.07
2019-03-09T20:05:16.567Z,3.47
2019-03-09T20:07:42.714Z,3.57
2019-03-09T20:10:12.064Z,3.07
2019-03-09T20:12:38.651Z,2.87
2019-03-09T20:15:08.509Z,2.60
2019-03-09T20:17:34.919Z,2.90
2019-03-09T20:20:01.725Z,2.60
2019-03-09T20:22:27.863Z,3.50
2019-03-09T20:24:54.273Z,2.70
2019-03-09T20:27:20.322Z,2.90
2019-03-09T20:29:46.694Z,3.10
2019-03-09T20:32:13.064Z,3.40
2019-03-09T20:34:39.105Z,2.67
2019-03-09T20:37:05.226Z,2.73
2019-03-09T20:39:31.733Z,4.17
2019-03-09T20:41:57.835Z,3.10
2019-03-09T20:44:24.332Z,3.30
2019-03-09T20:46:50.752Z,2.80
2019-03-09T20:49:17.089Z,2.93
2019-03-09T20:51:43.559Z,3.80
2019-03-09T20:54:10.323Z,3.20
2019-03-09T20:56:36.661Z,2.60
2019-03-09T20:59:02.716Z,2.57
2019-03-09T21:01:28.825Z,2.73
2019-03-09T21:03:54.874Z,3.37
2019-03-09T21:06:21.926Z,3.07
2019-03-09T21:08:47.980Z,2.87
2019-03-09T21:11:14.400Z,2.70
2019-03-09T21:13:40.868Z,2.53
2019-03-09T21:16:08.552Z,3.07
2019-03-09T21:18:35.015Z,2.23
2019-03-09T21:21:01.150Z,2.77
2019-03-09T21:23:27.290Z,2.40
2019-03-09T21:25:53.972Z,2.47
2019-03-09T21:28:20.075Z,2.50
2019-03-09T21:30:46.833Z,2.77
2019-03-09T21:33:13.301Z,2.40
2019-03-09T21:35:39.383Z,2.10
2019-03-09T21:38:05.429Z,1.97
2019-03-09T21:40:31.995Z,2.17
2019-03-09T21:42:58.043Z,2.43
2019-03-09T21:45:24.101Z,2.17
2019-03-09T21:47:50.507Z,2.00
2019-03-09T21:50:17.352Z,2.43
2019-03-09T21:52:43.959Z,1.90
2019-03-09T21:55:11.267Z,2.40
2019-03-09T21:57:38.382Z,1.90
2019-03-09T22:00:06.728Z,2.10
2019-03-09T22:02:32.772Z,2.20
2019-03-09T22:04:59.265Z,2.10
2019-03-09T22:07:25.675Z,2.17
2019-03-09T22:09:51.796Z,1.83
2019-03-09T22:12:17.839Z,2.60
2019-03-09T22:14:44.228Z,1.70
2019-03-09T22:17:10.333Z,2.10
2019-03-09T22:19:36.384Z,2.10
2019-03-09T22:22:02.844Z,1.63
2019-03-09T22:24:29.244Z,1.87
2019-03-09T22:26:55.576Z,1.90
2019-03-09T22:29:22.004Z,1.57
2019-03-09T22:31:48.751Z,1.60
2019-03-09T22:34:14.835Z,1.97
2019-03-09T22:36:40.915Z,2.00
2019-03-09T22:39:07.441Z,1.63
2019-03-09T22:41:33.515Z,1.70
2019-03-09T22:43:59.572Z,1.63
2019-03-09T22:46:25.742Z,1.67
2019-03-09T22:48:51.791Z,3.30
2019-03-09T22:51:18.191Z,2.10
2019-03-09T22:53:44.271Z,1.53
2019-03-09T22:56:10.404Z,1.83
2019-03-09T22:58:36.857Z,1.47
2019-03-09T23:01:04.426Z,1.73
2019-03-09T23:03:31.858Z,1.60
2019-03-09T23:05:57.939Z,1.60
2019-03-09T23:08:24.658Z,1.80
2019-03-09T23:10:51.159Z,1.47
2019-03-09T23:13:17.239Z,1.67
2019-03-09T23:15:43.306Z,1.93
2019-03-09T23:18:09.756Z,1.70
2019-03-09T23:20:35.803Z,1.20
2019-03-09T23:23:01.888Z,2.10
2019-03-09T23:25:27.932Z,1.60
2019-03-09T23:27:54.375Z,1.10
2019-03-09T23:30:22.324Z,1.70
2019-03-09T23:32:48.756Z,1.07
2019-03-09T23:35:16.196Z,1.43
2019-03-09T23:37:43.706Z,2.03
2019-03-09T23:40:13.234Z,1.60
2019-03-09T23:42:39.285Z,1.00
2019-03-09T23:45:07.591Z,1.67
2019-03-09T23:47:33.672Z,1.43
2019-03-09T23:49:59.720Z,1.83
2019-03-09T23:52:26.136Z,1.30
2019-03-09T23:54:52.359Z,1.27
2019-03-09T23:57:18.789Z,1.13
2019-03-09T23:59:44.887Z,1.33
